Time;durP1;ratioP1;P1;durP2;ratioP2;P2;SDS_P1;SDS_P2;PMS_P1;PMS_P2;Temp;Humidity;BMP_temperature;BMP_pressure;BME280_temperature;BME280_humidity;BME280_pressure;Samples;Min_cycle;Max_cycle;Signal;HPM_P1;HPM_P2
2022/12/01 00:01:01;;;;;;;7.43;4.77;;;8.60;99.90;;;;;;5093064;28;20257;-76
2022/12/01 00:03:31;;;;;;;5.93;4.20;;;8.60;99.90;;;;;;5093951;28;20250;-77
2022/12/01 00:05:59;;;;;;;7.20;4.50;;;8.60;99.90;;;;;;5059897;28;20267;-76
2022/12/01 00:08:28;;;;;;;5.40;4.40;;;8.60;99.90;;;;;;5093322;28;20216;-76
2022/12/01 00:10:53;;;;;;;5.50;4.30;;;8.60;99.90;;;;;;5091329;28;20176;-78
2022/12/01 00:13:19;;;;;;;6.57;4.70;;;8.50;99.90;;;;;;5057594;28;20191;-77
2022/12/01 00:15:47;;;;;;;5.63;4.20;;;8.50;99.90;;;;;;5093419;28;20180;-77
2022/12/01 00:18:13;;;;;;;5.77;4.67;;;8.50;99.90;;;;;;5093122;28;20251;-78
2022/12/01 00:20:39;;;;;;;8.27;4.67;;;8.50;99.90;;;;;;5083724;28;20279;-78
2022/12/01 00:23:05;;;;;;;7.07;4.53;;;8.50;99.90;;;;;;5092175;28;20180;-75
2022/12/01 00:25:31;;;;;;;6.93;4.63;;;8.50;99.90;;;;;;5056974;28;20250;-78
2022/12/01 00:27:57;;;;;;;7.20;4.50;;;8.50;99.90;;;;;;5060702;28;20204;-78
2022/12/01 00:30:25;;;;;;;6.73;4.33;;;8.60;99.90;;;;;;5091468;28;20169;-78
2022/12/01 00:32:51;;;;;;;5.73;4.07;;;8.50;99.90;;;;;;5094617;28;20176;-77
2022/12/01 00:35:19;;;;;;;6.47;4.57;;;8.50;99.90;;;;;;5099098;28;20185;-77
2022/12/01 00:37:44;;;;;;;6.60;4.80;;;8.50;99.90;;;;;;5095870;28;20206;-78
2022/12/01 00:40:12;;;;;;;5.90;4.70;;;8.60;99.90;;;;;;5095893;28;20181;-78
2022/12/01 00:42:38;;;;;;;7.97;4.73;;;8.50;99.90;;;;;;5093981;28;20246;-76
2022/12/01 00:45:07;;;;;;;6.73;4.70;;;8.60;99.90;;;;;;5061064;28;20173;-78
2022/12/01 00:47:32;;;;;;;6.43;4.43;;;8.50;99.90;;;;;;5058321;28;20203;-77
2022/12/01 00:50:00;;;;;;;6.30;4.70;;;8.50;99.90;;;;;;5059337;28;20176;-77
2022/12/01 00:52:31;;;;;;;6.87;5.33;;;8.50;99.90;;;;;;5094103;28;20176;-76
2022/12/01 00:54:56;;;;;;;7.97;5.20;;;8.50;99.90;;;;;;5092184;28;20186;-76
2022/12/01 00:57:24;;;;;;;6.00;4.73;;;8.50;99.90;;;;;;5094988;28;20267;-77
2022/12/01 00:59:54;;;;;;;6.80;5.13;;;8.60;99.90;;;;;;5092754;28;20185;-77
2022/12/01 01:02:20;;;;;;;7.13;5.07;;;8.50;99.90;;;;;;5079163;28;20181;-76
2022/12/01 01:04:45;;;;;;;6.53;4.70;;;8.40;99.90;;;;;;5097501;28;20179;-78
2022/12/01 01:07:11;;;;;;;7.47;5.37;;;8.50;99.90;;;;;;5096103;28;20228;-78
2022/12/01 01:09:37;;;;;;;7.33;5.23;;;8.40;99.90;;;;;;5062219;28;20182;-76
2022/12/01 01:12:03;;;;;;;8.30;5.53;;;8.40;99.90;;;;;;5092779;28;20272;-78
2022/12/01 01:14:28;;;;;;;6.00;5.00;;;8.40;99.90;;;;;;5092894;28;20205;-77
2022/12/01 01:16:55;;;;;;;6.83;5.10;;;8.40;99.90;;;;;;5066631;28;20291;-77
2022/12/01 01:19:25;;;;;;;6.70;5.00;;;8.40;99.90;;;;;;5097033;28;20187;-77
2022/12/01 01:21:51;;;;;;;6.10;4.63;;;8.40;99.90;;;;;;5091407;28;20267;-78
2022/12/01 01:24:19;;;;;;;7.13;4.83;;;8.40;99.90;;;;;;5062346;28;20207;-77
2022/12/01 01:26:44;;;;;;;7.27;4.43;;;8.50;99.90;;;;;;5065564;28;20205;-76
2022/12/01 01:29:10;;;;;;;6.20;4.63;;;8.40;99.90;;;;;;5065101;28;20179;-78
2022/12/01 01:31:36;;;;;;;7.40;5.07;;;8.50;99.90;;;;;;5089992;28;20183;-76
2022/12/01 01:34:02;;;;;;;6.20;4.03;;;8.40;99.90;;;;;;5095698;28;20173;-78
2022/12/01 01:36:28;;;;;;;5.40;4.60;;;8.50;99.90;;;;;;5092560;28;20272;-77
2022/12/01 01:38:56;;;;;;;6.70;4.67;;;8.40;99.90;;;;;;5094821;28;20256;-78
2022/12/01 01:41:22;;;;;;;7.90;4.50;;;8.50;99.90;;;;;;5094707;28;20326;-78
2022/12/01 01:43:53;;;;;;;6.80;4.87;;;8.60;99.90;;;;;;5062700;28;20185;-77
2022/12/01 01:46:28;;;;;;;5.73;4.30;;;8.40;99.90;;;;;;5059252;28;20282;-78
2022/12/01 01:48:59;;;;;;;6.40;4.07;;;8.50;99.90;;;;;;5061773;28;20176;-77
2022/12/01 01:51:30;;;;;;;6.80;4.63;;;8.50;99.90;;;;;;5060141;28;20205;-77
2022/12/01 01:54:04;;;;;;;6.67;4.47;;;8.50;99.90;;;;;;5098881;28;20196;-76
2022/12/01 01:56:37;;;;;;;6.07;4.60;;;8.50;99.90;;;;;;5063527;28;20215;-78
2022/12/01 01:59:03;;;;;;;6.03;4.43;;;8.50;99.90;;;;;;5096188;28;20176;-75
2022/12/01 02:01:32;;;;;;;6.83;4.57;;;8.50;99.90;;;;;;5064760;28;20176;-76
2022/12/01 02:03:58;;;;;;;6.17;4.67;;;8.40;99.90;;;;;;5091408;28;20237;-77
2022/12/01 02:06:24;;;;;;;6.40;4.57;;;8.40;99.90;;;;;;5092964;28;20180;-76
2022/12/01 02:08:52;;;;;;;7.37;5.10;;;8.40;99.90;;;;;;5061739;28;20196;-77
2022/12/01 02:11:17;;;;;;;6.30;4.83;;;8.50;99.90;;;;;;5095350;28;20173;-76
2022/12/01 02:14:13;;;;;;;7.20;5.37;;;8.40;99.90;;;;;;5059155;28;20192;-76
2022/12/01 02:17:04;;;;;;;7.47;5.50;;;8.50;99.90;;;;;;5066019;28;20184;-76
2022/12/01 02:19:53;;;;;;;8.50;5.20;;;8.40;99.90;;;;;;5054916;28;20185;-75
2022/12/01 02:22:53;;;;;;;7.40;5.13;;;8.30;99.90;;;;;;5092738;28;20199;-76
2022/12/01 02:25:49;;;;;;;6.57;4.70;;;8.30;99.90;;;;;;4999420;28;20227;-77
2022/12/01 02:28:29;;;;;;;6.80;5.27;;;8.30;99.90;;;;;;5054804;28;20204;-76
2022/12/01 02:30:59;;;;;;;8.33;5.73;;;8.30;99.90;;;;;;5091785;28;20182;-78
2022/12/01 02:33:36;;;;;;;6.93;5.17;;;8.30;99.90;;;;;;5093352;28;20173;-76
2022/12/01 02:36:28;;;;;;;8.03;5.30;;;8.20;99.90;;;;;;5094569;28;20192;-77
2022/12/01 02:39:04;;;;;;;6.77;5.03;;;8.20;99.90;;;;;;5055236;28;20202;-76
2022/12/01 02:41:38;;;;;;;9.23;6.37;;;8.10;99.90;;;;;;5059463;28;20245;-76
2022/12/01 02:44:28;;;;;;;7.30;6.10;;;8.10;99.90;;;;;;5059807;28;20248;-76
2022/12/01 02:47:15;;;;;;;7.27;5.47;;;8.10;99.90;;;;;;5093293;28;20208;-76
2022/12/01 02:49:48;;;;;;;7.73;5.73;;;8.10;99.90;;;;;;5061702;28;20184;-76
2022/12/01 02:52:14;;;;;;;9.57;5.73;;;8.10;99.90;;;;;;5097171;28;20184;-75
2022/12/01 02:54:42;;;;;;;8.40;5.77;;;8.00;99.90;;;;;;5095490;28;20175;-76
2022/12/01 02:57:11;;;;;;;7.73;5.37;;;8.10;99.90;;;;;;5059297;28;20184;-77
2022/12/01 02:59:38;;;;;;;8.70;5.93;;;7.90;99.90;;;;;;5098584;28;20506;-77
2022/12/01 03:02:17;;;;;;;7.63;5.80;;;8.00;99.90;;;;;;5095160;28;20199;-75
2022/12/01 03:05:05;;;;;;;7.57;5.60;;;8.00;99.90;;;;;;5056761;28;20209;-76
2022/12/01 03:07:33;;;;;;;8.00;5.57;;;8.00;99.90;;;;;;5078437;28;20882;-77
2022/12/01 03:10:29;;;;;;;7.80;5.73;;;8.00;99.90;;;;;;5066629;28;20181;-75
2022/12/01 03:13:40;;;;;;;8.87;6.43;;;8.00;99.90;;;;;;5059870;28;20226;-75
2022/12/01 03:16:10;;;;;;;8.67;6.03;;;8.00;99.90;;;;;;5060504;28;20187;-76
2022/12/01 03:18:40;;;;;;;9.87;6.93;;;7.90;99.90;;;;;;5061942;28;20199;-76
2022/12/01 03:21:14;;;;;;;7.97;6.23;;;7.90;99.90;;;;;;5091101;28;20172;-76
2022/12/01 03:23:52;;;;;;;9.13;6.73;;;7.90;99.90;;;;;;5093017;28;20181;-76
2022/12/01 03:26:20;;;;;;;7.83;6.13;;;8.00;99.90;;;;;;5095693;28;20273;-76
2022/12/01 03:28:55;;;;;;;8.90;6.50;;;8.00;99.90;;;;;;5060986;28;20215;-75
2022/12/01 03:31:26;;;;;;;8.73;6.40;;;7.90;99.90;;;;;;5060619;28;20192;-76
2022/12/01 03:34:01;;;;;;;9.97;6.60;;;8.00;99.90;;;;;;5059111;28;20207;-75
2022/12/01 03:36:41;;;;;;;9.30;6.80;;;8.00;99.90;;;;;;5095281;28;20259;-75
2022/12/01 03:39:15;;;;;;;9.13;6.60;;;7.90;99.90;;;;;;5089854;28;20234;-75
2022/12/01 03:41:49;;;;;;;9.50;6.60;;;7.90;99.90;;;;;;5092188;28;20195;-74
2022/12/01 03:44:21;;;;;;;9.70;6.60;;;7.90;99.90;;;;;;5092284;28;20176;-75
2022/12/01 03:47:04;;;;;;;10.47;7.37;;;8.00;99.90;;;;;;5094448;28;20285;-76
2022/12/01 03:49:34;;;;;;;11.67;8.43;;;7.90;99.90;;;;;;5093403;28;20184;-74
2022/12/01 03:52:02;;;;;;;10.33;7.43;;;7.90;99.90;;;;;;5058042;28;20188;-75
2022/12/01 03:54:35;;;;;;;11.63;7.97;;;7.90;99.90;;;;;;5092264;28;20424;-75
2022/12/01 03:57:09;;;;;;;11.17;7.97;;;7.90;99.90;;;;;;5061324;28;20188;-75
2022/12/01 03:59:37;;;;;;;14.40;8.40;;;7.90;99.90;;;;;;5058730;28;20185;-75
2022/12/01 04:02:06;;;;;;;12.63;8.73;;;7.90;99.90;;;;;;5089504;28;20180;-76
2022/12/01 04:04:32;;;;;;;14.10;8.97;;;8.10;99.90;;;;;;5096392;28;20232;-75
2022/12/01 04:06:59;;;;;;;12.70;8.80;;;7.90;99.90;;;;;;5091231;28;20204;-75
2022/12/01 04:09:28;;;;;;;12.23;8.57;;;7.90;99.90;;;;;;5059932;28;20180;-76
2022/12/01 04:14:40;;;;;;;12.07;8.17;;;7.90;99.90;;;;;;5077485;28;20187;-74
2022/12/01 04:17:07;;;;;;;13.77;9.23;;;7.90;99.90;;;;;;5094857;28;20181;-75
2022/12/01 04:19:36;;;;;;;13.47;8.50;;;7.90;99.90;;;;;;5080478;28;20206;-75
2022/12/01 04:22:05;;;;;;;13.33;8.17;;;7.90;99.90;;;;;;5060259;28;20192;-75
2022/12/01 04:24:30;;;;;;;11.50;8.13;;;7.90;99.90;;;;;;5100293;28;21077;-75
2022/12/01 04:26:56;;;;;;;13.97;8.90;;;7.90;99.90;;;;;;5057990;28;20223;-75
2022/12/01 04:29:26;;;;;;;12.90;8.77;;;7.90;99.90;;;;;;5093290;28;20177;-75
2022/12/01 04:31:54;;;;;;;15.47;9.13;;;7.90;99.90;;;;;;5091753;28;20180;-74
2022/12/01 04:34:20;;;;;;;13.40;9.67;;;7.90;99.90;;;;;;5092275;28;20272;-75
2022/12/01 04:36:46;;;;;;;16.17;9.60;;;8.00;99.90;;;;;;5093517;28;20284;-75
2022/12/01 04:39:11;;;;;;;13.13;8.93;;;8.00;99.90;;;;;;5060785;28;20185;-75
2022/12/01 04:41:39;;;;;;;14.57;9.20;;;7.90;99.90;;;;;;5087976;28;20338;-75
2022/12/01 04:44:05;;;;;;;15.70;9.53;;;7.90;99.90;;;;;;5093021;28;20210;-76
2022/12/01 04:46:30;;;;;;;13.97;9.17;;;7.90;99.90;;;;;;5091185;28;20488;-76
2022/12/01 04:48:56;;;;;;;14.30;9.53;;;7.90;99.90;;;;;;5075928;28;20176;-76
2022/12/01 04:51:22;;;;;;;14.47;8.50;;;7.90;99.90;;;;;;5094372;28;20197;-75
2022/12/01 04:53:49;;;;;;;14.47;9.13;;;7.90;99.90;;;;;;5058023;28;20199;-76
2022/12/01 04:56:17;;;;;;;12.43;8.90;;;7.90;99.90;;;;;;5091488;28;20197;-74
2022/12/01 04:58:45;;;;;;;12.03;8.60;;;7.90;99.90;;;;;;5095752;28;20239;-75
2022/12/01 05:01:13;;;;;;;13.70;8.70;;;7.90;99.90;;;;;;5090907;28;20196;-73
2022/12/01 05:03:44;;;;;;;15.67;10.73;;;8.00;99.90;;;;;;5090999;28;20267;-74
2022/12/01 05:06:13;;;;;;;14.77;9.37;;;7.90;99.90;;;;;;5057107;28;20191;-74
2022/12/01 05:08:38;;;;;;;12.40;8.57;;;7.90;99.90;;;;;;5092205;28;20223;-73
2022/12/01 05:11:06;;;;;;;13.03;8.10;;;7.90;99.90;;;;;;5093786;28;20180;-74
2022/12/01 05:13:32;;;;;;;11.33;7.77;;;7.90;99.90;;;;;;5061064;28;20268;-74
2022/12/01 05:16:28;;;;;;;12.17;8.43;;;7.90;99.90;;;;;;5094454;28;20188;-74
2022/12/01 05:21:41;;;;;;;14.53;8.70;;;7.90;99.90;;;;;;5066630;28;20204;-75
2022/12/01 05:24:10;;;;;;;11.63;7.87;;;7.90;99.90;;;;;;5091696;28;20852;-74
2022/12/01 05:26:39;;;;;;;12.77;8.43;;;7.90;99.90;;;;;;5094380;28;20185;-75
2022/12/01 05:29:08;;;;;;;14.33;9.20;;;7.90;99.90;;;;;;5059178;28;20199;-76
2022/12/01 05:31:34;;;;;;;15.00;9.37;;;7.90;99.90;;;;;;5092198;28;20187;-75
2022/12/01 05:34:00;;;;;;;14.97;10.07;;;7.90;99.90;;;;;;5094792;28;20189;-77
2022/12/01 05:36:28;;;;;;;15.47;9.73;;;8.00;99.90;;;;;;5062593;28;20177;-77
2022/12/01 05:38:54;;;;;;;14.87;9.27;;;7.90;99.90;;;;;;5087174;28;20180;-77
2022/12/01 05:41:20;;;;;;;15.00;9.73;;;7.90;99.90;;;;;;5094214;28;20293;-78
2022/12/01 05:43:48;;;;;;;15.43;9.67;;;8.00;99.90;;;;;;5087081;28;20185;-76
2022/12/01 05:46:13;;;;;;;15.13;9.80;;;8.00;99.90;;;;;;5094665;28;20267;-77
2022/12/01 05:48:44;;;;;;;15.73;9.37;;;8.00;99.90;;;;;;5093494;28;20287;-76
2022/12/01 05:51:11;;;;;;;15.00;9.10;;;8.00;99.90;;;;;;5099689;28;20176;-76
2022/12/01 05:53:37;;;;;;;14.93;9.50;;;8.10;99.90;;;;;;5093362;28;20200;-77
2022/12/01 05:56:03;;;;;;;13.67;9.27;;;8.00;99.90;;;;;;5096217;28;20208;-75
2022/12/01 05:58:29;;;;;;;14.63;9.17;;;8.00;99.90;;;;;;5103585;28;20184;-78
2022/12/01 06:00:54;;;;;;;18.53;10.50;;;8.10;99.90;;;;;;5063431;28;20184;-78
2022/12/01 06:03:20;;;;;;;18.03;11.17;;;8.00;99.90;;;;;;5063819;28;20187;-77
2022/12/01 06:05:46;;;;;;;15.77;10.90;;;8.00;99.90;;;;;;5100900;28;20196;-75
2022/12/01 06:08:11;;;;;;;21.13;11.43;;;8.10;99.90;;;;;;5094431;28;20229;-77
2022/12/01 06:10:39;;;;;;;18.50;11.03;;;8.10;99.90;;;;;;5059536;28;20188;-76
2022/12/01 06:13:05;;;;;;;14.90;10.33;;;8.10;99.90;;;;;;5064027;28;20318;-77
2022/12/01 06:15:33;;;;;;;17.27;10.27;;;8.00;99.90;;;;;;5098639;28;20218;-76
2022/12/01 06:18:01;;;;;;;15.50;10.03;;;8.00;99.90;;;;;;5061525;28;20803;-78
2022/12/01 06:20:26;;;;;;;18.20;10.77;;;8.00;99.90;;;;;;5095314;28;20266;-76
2022/12/01 06:22:52;;;;;;;16.90;10.17;;;8.00;99.90;;;;;;5096943;28;20219;-76
2022/12/01 06:25:18;;;;;;;16.87;10.33;;;8.10;99.90;;;;;;5093210;28;20206;-75
2022/12/01 06:27:44;;;;;;;16.10;9.57;;;8.00;99.90;;;;;;5097557;28;20204;-76
2022/12/01 06:30:12;;;;;;;16.50;9.80;;;8.10;99.90;;;;;;5101909;28;20267;-76
2022/12/01 06:32:38;;;;;;;18.43;10.90;;;8.10;99.90;;;;;;5093288;28;20181;-76
2022/12/01 06:35:06;;;;;;;17.73;11.10;;;8.20;99.90;;;;;;5061712;28;20184;-76
2022/12/01 06:37:34;;;;;;;15.27;9.87;;;8.10;99.90;;;;;;5092901;28;20192;-85
2022/12/01 06:40:03;;;;;;;16.67;10.60;;;8.00;99.90;;;;;;5060305;28;20188;-78
2022/12/01 06:42:31;;;;;;;19.00;11.43;;;8.10;99.90;;;;;;5054295;28;20199;-78
2022/12/01 06:45:02;;;;;;;16.57;11.43;;;8.00;99.90;;;;;;5092220;28;20204;-76
2022/12/01 06:47:27;;;;;;;15.27;10.07;;;8.00;99.90;;;;;;5058341;28;20358;-78
2022/12/01 06:49:53;;;;;;;16.00;9.83;;;8.10;99.90;;;;;;5095512;28;20207;-78
2022/12/01 06:52:18;;;;;;;15.17;9.93;;;8.10;99.90;;;;;;5096224;28;20170;-77
2022/12/01 06:54:46;;;;;;;16.17;10.27;;;8.10;99.90;;;;;;5091144;28;20262;-79
2022/12/01 06:57:12;;;;;;;15.43;10.47;;;8.10;99.90;;;;;;5091849;28;20183;-81
2022/12/01 06:59:37;;;;;;;13.90;9.47;;;8.10;99.90;;;;;;5060394;28;20205;-81
2022/12/01 07:02:03;;;;;;;16.97;10.20;;;8.10;99.90;;;;;;5055689;28;20181;-81
2022/12/01 07:04:29;;;;;;;16.07;10.23;;;8.20;99.90;;;;;;5050576;28;20181;-80
2022/12/01 07:06:55;;;;;;;16.87;10.80;;;8.10;99.90;;;;;;5054407;28;20239;-78
2022/12/01 07:09:21;;;;;;;16.80;10.73;;;8.10;99.90;;;;;;5058917;28;20197;-79
2022/12/01 07:11:46;;;;;;;17.20;10.47;;;8.10;99.90;;;;;;5058294;28;20208;-79
2022/12/01 07:14:32;;;;;;;18.67;11.90;;;8.30;99.90;;;;;;5062605;28;20176;-78
2022/12/01 07:16:58;;;;;;;16.33;10.70;;;8.10;99.90;;;;;;5057329;28;20215;-83
2022/12/01 07:19:24;;;;;;;16.37;10.13;;;8.10;99.90;;;;;;5060270;28;20180;-85
2022/12/01 07:21:50;;;;;;;14.67;10.00;;;8.10;99.90;;;;;;5094269;28;20179;-84
2022/12/01 07:24:16;;;;;;;17.40;10.90;;;8.10;99.90;;;;;;5091689;28;20204;-83
2022/12/01 07:26:42;;;;;;;14.47;9.90;;;8.10;99.90;;;;;;5092185;28;20185;-83
2022/12/01 07:29:09;;;;;;;15.93;10.20;;;8.10;99.90;;;;;;5092431;28;20208;-82
2022/12/01 07:31:37;;;;;;;18.13;10.47;;;8.10;99.90;;;;;;5090275;28;20233;-83
2022/12/01 07:34:03;;;;;;;15.07;9.90;;;8.10;99.90;;;;;;5098115;28;20208;-77
2022/12/01 07:36:29;;;;;;;14.70;10.33;;;8.10;99.90;;;;;;5056238;28;20229;-74
2022/12/01 07:38:54;;;;;;;18.80;11.07;;;8.00;99.90;;;;;;5063793;28;20276;-77
2022/12/01 07:41:20;;;;;;;16.07;10.43;;;8.10;99.90;;;;;;5057890;28;20192;-76
2022/12/01 07:43:46;;;;;;;14.67;9.53;;;8.10;99.90;;;;;;5092841;28;20187;-75
2022/12/01 07:46:20;;;;;;;14.97;9.17;;;8.10;99.90;;;;;;5092055;28;20179;-75
2022/12/01 07:48:46;;;;;;;14.13;9.20;;;8.10;99.90;;;;;;5088716;28;20360;-75
2022/12/01 07:51:15;;;;;;;14.77;10.10;;;8.20;99.90;;;;;;5090346;28;20267;-75
2022/12/01 07:53:41;;;;;;;14.60;9.63;;;8.10;99.90;;;;;;5061089;28;20188;-75
2022/12/01 07:56:07;;;;;;;14.17;9.47;;;8.20;99.90;;;;;;5091161;28;20173;-73
2022/12/01 07:58:33;;;;;;;14.33;9.07;;;8.10;99.90;;;;;;5093577;28;20284;-76
2022/12/01 08:01:06;;;;;;;15.27;9.60;;;8.10;99.90;;;;;;5094234;28;20190;-76
2022/12/01 08:03:34;;;;;;;13.63;9.33;;;8.20;99.90;;;;;;5060525;28;20202;-75
2022/12/01 08:06:01;;;;;;;14.27;9.43;;;8.10;99.90;;;;;;5090962;28;20184;-76
2022/12/01 08:08:29;;;;;;;14.07;9.30;;;8.10;99.90;;;;;;5058780;28;20207;-77
2022/12/01 08:11:03;;;;;;;12.93;9.23;;;8.20;99.90;;;;;;5091428;28;20266;-77
2022/12/01 08:13:29;;;;;;;14.60;9.33;;;8.20;99.90;;;;;;5091447;28;20197;-76
2022/12/01 08:15:55;;;;;;;14.43;9.20;;;8.10;99.90;;;;;;5100731;28;20259;-78
2022/12/01 08:18:23;;;;;;;12.93;8.57;;;8.10;99.90;;;;;;5063099;28;20176;-78
2022/12/01 08:20:49;;;;;;;13.83;9.03;;;8.20;99.90;;;;;;5107726;28;20223;-78
2022/12/01 08:23:15;;;;;;;15.33;9.40;;;8.10;99.90;;;;;;5102117;28;20191;-77
2022/12/01 08:25:41;;;;;;;13.40;8.87;;;8.20;99.90;;;;;;5094989;28;20181;-78
2022/12/01 08:28:06;;;;;;;14.00;9.10;;;8.20;99.90;;;;;;5091809;28;20350;-77
2022/12/01 08:30:32;;;;;;;13.93;9.00;;;8.20;99.90;;;;;;5093128;28;20211;-78
2022/12/01 08:32:58;;;;;;;13.63;9.10;;;8.10;99.90;;;;;;5058041;28;20192;-78
2022/12/01 08:35:24;;;;;;;15.87;9.57;;;8.20;99.90;;;;;;5074542;28;20200;-77
2022/12/01 08:37:53;;;;;;;16.20;9.27;;;8.20;99.90;;;;;;5091059;28;20195;-78
2022/12/01 08:40:19;;;;;;;14.17;9.33;;;8.10;99.90;;;;;;5094750;28;20285;-77
2022/12/01 08:42:45;;;;;;;14.63;8.90;;;8.20;99.90;;;;;;5092254;28;20196;-77
2022/12/01 08:45:11;;;;;;;16.60;10.10;;;8.20;99.90;;;;;;5091027;28;20186;-78
2022/12/01 08:47:36;;;;;;;16.37;9.93;;;8.20;99.90;;;;;;5093036;28;20204;-78
2022/12/01 08:50:03;;;;;;;13.33;9.20;;;8.20;99.90;;;;;;5063031;28;20180;-77
2022/12/01 08:52:32;;;;;;;14.07;9.43;;;8.10;99.90;;;;;;5094299;28;20188;-77
2022/12/01 08:55:01;;;;;;;14.27;9.50;;;8.10;99.90;;;;;;5096566;28;20176;-77
2022/12/01 08:57:33;;;;;;;14.63;9.90;;;8.20;99.90;;;;;;5097322;28;20185;-78
2022/12/01 09:00:01;;;;;;;14.67;9.30;;;8.10;99.90;;;;;;5082469;28;20241;-78
2022/12/01 09:02:26;;;;;;;15.70;9.83;;;8.10;99.90;;;;;;5096252;28;20188;-78
2022/12/01 09:04:52;;;;;;;14.37;9.17;;;8.10;99.90;;;;;;5095175;28;20245;-77
2022/12/01 09:07:23;;;;;;;15.67;9.27;;;8.10;99.90;;;;;;5098508;28;20265;-78
2022/12/01 09:09:49;;;;;;;13.53;9.20;;;8.20;99.90;;;;;;5096812;28;20216;-77
2022/12/01 09:12:15;;;;;;;13.13;8.73;;;8.20;99.90;;;;;;5096087;28;20176;-77
2022/12/01 09:14:46;;;;;;;14.23;9.30;;;8.20;99.90;;;;;;5061507;28;20184;-78
2022/12/01 09:17:15;;;;;;;13.77;9.10;;;8.30;99.90;;;;;;5069129;28;20189;-77
2022/12/01 09:19:44;;;;;;;13.30;9.13;;;8.20;99.90;;;;;;5099704;28;20188;-78
2022/12/01 09:22:13;;;;;;;15.97;9.90;;;8.20;99.90;;;;;;5095324;28;20198;-77
2022/12/01 09:24:40;;;;;;;13.13;8.90;;;8.20;99.90;;;;;;5095753;28;20185;-77
2022/12/01 09:27:06;;;;;;;14.37;8.57;;;8.30;99.90;;;;;;5095809;28;20204;-77
2022/12/01 09:29:32;;;;;;;14.80;8.83;;;8.40;99.90;;;;;;5101445;28;20501;-77
2022/12/01 09:31:59;;;;;;;15.33;9.10;;;8.30;99.90;;;;;;5112769;28;20183;-78
2022/12/01 09:34:25;;;;;;;13.73;8.97;;;8.30;99.90;;;;;;5108358;28;20180;-77
2022/12/01 09:36:54;;;;;;;14.30;9.23;;;8.30;99.90;;;;;;5102686;28;20176;-77
2022/12/01 09:39:20;;;;;;;13.47;8.27;;;8.40;99.90;;;;;;5066269;28;20236;-78
2022/12/01 09:41:48;;;;;;;13.00;8.30;;;8.40;99.90;;;;;;5111580;28;20192;-78
2022/12/01 09:44:35;;;;;;;13.30;8.47;;;8.40;99.90;;;;;;5059363;28;20206;-77
2022/12/01 09:47:06;;;;;;;13.23;8.47;;;8.40;99.90;;;;;;5094338;28;20250;-78
2022/12/01 09:49:48;;;;;;;13.87;8.30;;;8.40;99.90;;;;;;5061943;28;20196;-78
2022/12/01 09:52:16;;;;;;;13.43;8.10;;;8.40;99.90;;;;;;5062748;28;20313;-77
2022/12/01 09:54:42;;;;;;;11.43;7.73;;;8.40;99.90;;;;;;5094080;28;20280;-78
2022/12/01 09:57:16;;;;;;;15.63;7.93;;;8.40;99.90;;;;;;5094253;28;20272;-78
2022/12/01 09:59:43;;;;;;;11.80;7.83;;;8.40;99.90;;;;;;5094282;28;20177;-79
2022/12/01 10:02:31;;;;;;;12.00;7.60;;;8.50;99.90;;;;;;5093143;28;20193;-79
2022/12/01 10:05:07;;;;;;;11.87;7.83;;;8.50;99.90;;;;;;5097530;28;20207;-78
2022/12/01 10:07:37;;;;;;;11.13;7.53;;;8.50;99.90;;;;;;5060534;28;20204;-76
2022/12/01 10:10:37;;;;;;;10.67;7.57;;;8.60;99.90;;;;;;5097171;28;20177;-75
2022/12/01 10:13:15;;;;;;;11.20;7.40;;;8.60;99.90;;;;;;5053008;28;20188;-77
2022/12/01 10:15:53;;;;;;;8.93;6.47;;;8.60;99.90;;;;;;5092843;28;20258;-77
2022/12/01 10:18:35;;;;;;;10.53;7.40;;;8.60;99.90;;;;;;5096043;28;20180;-75
2022/12/01 10:21:13;;;;;;;8.50;6.27;;;8.60;99.90;;;;;;5096850;28;20190;-78
2022/12/01 10:23:42;;;;;;;8.97;6.53;;;8.60;99.90;;;;;;5100078;28;20183;-77
2022/12/01 10:26:33;;;;;;;9.30;6.70;;;8.70;99.90;;;;;;5094677;28;20270;-79
2022/12/01 10:29:05;;;;;;;9.20;6.30;;;8.70;99.90;;;;;;5098997;28;20200;-78
2022/12/01 10:31:54;;;;;;;7.53;6.10;;;8.70;99.90;;;;;;5066459;28;20216;-76
2022/12/01 10:34:25;;;;;;;8.07;5.97;;;8.70;99.90;;;;;;5058121;28;20187;-76
2022/12/01 10:36:53;;;;;;;8.33;5.57;;;8.70;99.90;;;;;;5068918;28;20271;-75
2022/12/01 10:39:42;;;;;;;8.83;5.73;;;8.70;99.90;;;;;;5076802;28;20187;-78
2022/12/01 10:42:41;;;;;;;8.13;5.87;;;8.70;99.90;;;;;;5092585;28;20188;-76
2022/12/01 10:45:23;;;;;;;7.47;5.23;;;8.70;99.90;;;;;;5040372;28;20306;-76
2022/12/01 10:48:19;;;;;;;7.50;5.43;;;8.70;99.90;;;;;;5060014;28;20208;-76
2022/12/01 10:50:55;;;;;;;6.47;4.93;;;8.70;99.90;;;;;;5063464;28;20180;-77
2022/12/01 10:53:28;;;;;;;6.43;5.10;;;8.70;99.90;;;;;;5063458;28;20176;-77
2022/12/01 10:56:09;;;;;;;6.90;5.20;;;8.80;99.90;;;;;;5066620;28;20184;-76
2022/12/01 10:58:56;;;;;;;7.07;5.17;;;8.80;99.90;;;;;;5090382;28;20272;-76
2022/12/01 11:01:25;;;;;;;7.07;5.43;;;8.80;99.90;;;;;;5058034;28;20188;-76
2022/12/01 11:03:58;;;;;;;6.80;5.23;;;8.80;99.90;;;;;;5094829;28;20181;-76
2022/12/01 11:06:26;;;;;;;6.93;5.13;;;8.80;99.90;;;;;;5092210;28;20177;-77
2022/12/01 11:09:07;;;;;;;7.00;4.67;;;8.80;99.90;;;;;;5058649;28;20224;-76
2022/12/01 11:11:36;;;;;;;7.47;5.60;;;8.80;99.90;;;;;;5098527;28;20172;-77
2022/12/01 11:14:15;;;;;;;7.07;5.00;;;8.80;99.90;;;;;;5022394;28;20185;-78
2022/12/01 11:16:45;;;;;;;7.03;4.73;;;8.80;99.90;;;;;;5091896;28;20203;-77
2022/12/01 11:19:31;;;;;;;6.27;4.90;;;8.80;99.90;;;;;;5099596;28;20260;-76
2022/12/01 11:22:24;;;;;;;5.17;4.30;;;8.80;99.90;;;;;;5040893;28;20173;-77
2022/12/01 11:24:52;;;;;;;5.43;4.47;;;8.80;99.90;;;;;;5058781;28;20263;-77
2022/12/01 11:27:27;;;;;;;6.20;4.40;;;8.80;99.90;;;;;;5057928;28;20227;-78
2022/12/01 11:30:03;;;;;;;5.43;4.50;;;8.80;99.90;;;;;;5091869;28;20172;-77
2022/12/01 11:32:35;;;;;;;5.67;4.63;;;8.80;99.90;;;;;;5091873;28;20160;-78
2022/12/01 11:35:23;;;;;;;6.73;4.97;;;8.80;99.90;;;;;;5095143;28;20283;-78
2022/12/01 11:37:55;;;;;;;5.97;4.60;;;8.80;99.90;;;;;;5056059;28;20179;-79
2022/12/01 11:40:23;;;;;;;6.13;4.87;;;8.80;99.90;;;;;;5059820;28;20211;-78
2022/12/01 11:42:56;;;;;;;5.73;4.50;;;8.80;99.90;;;;;;5058306;28;20203;-78
2022/12/01 11:45:38;;;;;;;5.97;4.47;;;8.80;99.90;;;;;;5093943;28;20172;-78
2022/12/01 11:48:21;;;;;;;6.50;4.43;;;8.80;99.90;;;;;;5098305;28;20204;-77
2022/12/01 11:50:59;;;;;;;5.77;4.57;;;8.80;99.90;;;;;;5097216;28;20172;-78
2022/12/01 11:53:42;;;;;;;6.90;4.83;;;8.80;99.90;;;;;;5095007;28;20180;-77
2022/12/01 11:56:27;;;;;;;5.37;4.27;;;8.80;99.90;;;;;;5096679;28;20199;-78
2022/12/01 11:59:16;;;;;;;6.00;4.47;;;8.80;99.90;;;;;;5062607;28;20184;-77
2022/12/01 12:01:59;;;;;;;6.43;4.73;;;8.80;99.90;;;;;;5064088;28;20195;-77
2022/12/01 12:04:54;;;;;;;6.27;4.57;;;8.80;99.90;;;;;;5058346;28;20476;-76
2022/12/01 12:07:57;;;;;;;7.07;5.13;;;8.80;99.90;;;;;;5062064;28;20219;-76
2022/12/01 12:10:41;;;;;;;7.47;5.23;;;8.80;99.90;;;;;;5095857;28;20180;-76
2022/12/01 12:13:09;;;;;;;5.93;4.87;;;8.80;99.90;;;;;;5091985;28;20180;-77
2022/12/01 12:15:53;;;;;;;7.43;5.30;;;8.80;99.90;;;;;;5061914;28;20575;-76
2022/12/01 12:18:33;;;;;;;7.43;5.13;;;8.80;99.90;;;;;;5061776;28;20241;-77
2022/12/01 12:21:19;;;;;;;8.30;6.00;;;8.80;99.90;;;;;;5058301;28;20192;-77
2022/12/01 12:23:57;;;;;;;9.67;6.33;;;8.80;99.90;;;;;;5095100;28;20271;-78
2022/12/01 12:26:27;;;;;;;9.00;6.80;;;8.80;99.90;;;;;;5065264;28;20187;-78
2022/12/01 12:29:43;;;;;;;12.03;7.30;;;8.80;99.90;;;;;;5078295;28;20206;-77
2022/12/01 12:32:14;;;;;;;10.97;7.23;;;8.80;99.90;;;;;;5026020;28;20181;-75
2022/12/01 12:35:09;;;;;;;10.43;7.97;;;8.80;99.90;;;;;;5081593;28;20176;-76
2022/12/01 12:38:03;;;;;;;11.13;7.67;;;8.70;99.90;;;;;;5067401;28;20180;-77
2022/12/01 12:40:40;;;;;;;11.57;7.87;;;8.70;99.90;;;;;;5062508;28;20196;-76
2022/12/01 12:43:22;;;;;;;13.17;8.27;;;8.80;99.90;;;;;;5059520;28;20192;-76
2022/12/01 12:46:10;;;;;;;13.17;8.40;;;8.70;99.90;;;;;;5059430;28;20184;-76
2022/12/01 12:48:42;;;;;;;12.40;8.50;;;8.70;99.90;;;;;;5064564;28;20204;-77
2022/12/01 12:51:07;;;;;;;12.53;8.20;;;8.70;99.90;;;;;;5106160;28;20177;-78
2022/12/01 12:53:51;;;;;;;11.00;8.37;;;8.70;99.90;;;;;;5097110;28;20234;-76
2022/12/01 12:56:20;;;;;;;11.60;8.33;;;8.70;99.90;;;;;;5093847;28;20180;-76
2022/12/01 12:58:52;;;;;;;12.30;8.27;;;8.70;99.90;;;;;;5095131;28;20181;-77
2022/12/01 13:01:29;;;;;;;12.40;8.13;;;8.80;99.90;;;;;;5058662;28;20184;-76
2022/12/01 13:04:04;;;;;;;12.60;8.53;;;8.80;99.90;;;;;;5058255;28;20184;-76
2022/12/01 13:06:47;;;;;;;11.63;8.67;;;8.80;99.90;;;;;;5095691;28;20231;-77
2022/12/01 13:09:19;;;;;;;12.70;8.40;;;8.80;99.90;;;;;;5092957;28;20217;-76
2022/12/01 13:12:07;;;;;;;11.83;8.60;;;8.80;99.90;;;;;;5101553;28;20177;-76
2022/12/01 13:14:38;;;;;;;11.63;8.50;;;8.80;99.90;;;;;;5071947;28;20183;-77
2022/12/01 13:17:22;;;;;;;12.83;8.40;;;8.80;99.90;;;;;;5094346;28;20172;-77
2022/12/01 13:19:48;;;;;;;12.77;8.80;;;8.80;99.90;;;;;;5065567;28;20192;-76